GTU weather

Georgetown Municipal Airport
Georgetown, Texas, United States

Public forecast

Using degrees Fahrenheit for public forecast. Weather courtesy of forecast.io.

Current aviation weather report (METAR) for Georgetown Municipal Airport

Retrieved 2019/10/20 06:56 UTC (19 minutes ago):

KGTU 200656Z AUTO 00000KT 10SM CLR 17/12 A2984 RMK AO2 SLP098 T01670117

Closest aviation forecast (TAF) to Georgetown Municipal Airport

Closest forecast is Robert Gray Army Air Field Airport, 24.6 nm (45.5 km) NNW. Retrieved 2019/10/20 08:12 UTC (0 seconds ago):

TAF KGRK 200800Z 2008/2114 VRB06KT 9999 SKC QNH2979INS BECMG 2014/2015 17012G18KT 9999 FEW030 QNH2969INS BECMG 2100/2101 19009KT 9999 BKN030 QNH2971INS BECMG 2108/2109 21012KT 8000 -SHRA BKN015 QNH2973INS TEMPO 2110/2114 31025G35KT 6000 TSRA OVC010CB TX30/2021Z TN14/2008Z